Parobe, Brazil
Current Conditions -  °F | °C
As of 4:00 PM on Sunday 21 Dec 2014 (Local Time) from SBCO Reporting Station
Thunderstorm Thunderstorm  
Wind Chill: 72°   Ceiling: 900
Heat Index: 72°   Visibility: 1.8mi
Dew Point: 72°   Wind: 6mph
Humidity: 100%   Direction: 250°WSW
Pressure: 29.5"   Gusts: NA
Location:  29.63°S, 50.83°W
Report Text: SBCO 211800Z 25005KT 220V290 3000 +TSRA BR SCT003 BKN009 FEW030CB OVC040 22/22 Q0999
Loading
Personal Weather Stations






























Interactive Weather Map New forecast layout! Learn more

10-Day Weather Forecast

Advertisements
Track Severe Weather on mobile